CMA CGM Verlaine — DASO — position and weather

sailwx.info

Track history (hours):
 
Tides and Currents Weather Stations Pressure Air Temp Water Temp Dewpoint Dewpoint Depression Visibility Wind Speed Wind Dir Waves Ship Positions

CMA CGM Verlaine

Last reported at 2015-Jan-25 12:24 UTC. Time now 2015-Jan-30 12:27 UTC.
Position S 21°41' E 110°37'.

Length 300 m; beam 40 m; draft 14.5 m.

Type: Ship. MMSI: 211378820.

Date/timePositionNaut miles runAvg speedWind from/ knotsBaromVisibWave heightAir tempDewpointWater temp
2015-Jan-25 12:24S 21°41' E 110°37'10816.9
2015-Jan-25 06:00S 23°24' E 111°12'35618.2 180 / 241010.0 5.4 1.030.027.425.0
2015-Jan-24 10:22S 28°59' E 113°28'1417.6
2015-Jan-24 09:34S 29°12' E 113°34'6018.0
2015-Jan-24 06:14S 30°08' E 113°60'1318.5
2015-Jan-24 05:33S 30°18' E 114°08'6217.9
2015-Jan-24 02:05S 31°06' E 114°54'917.2
2015-Jan-24 01:33S 31°14' E 114°59'3618.1
2015-Jan-23 23:33S 31°43' E 115°25'1817.9
2015-Jan-23 22:33S 31°57' E 115°38'8 8.2
2015-Jan-23 21:34S 32°03' E 115°45'0 0.1
2015-Jan-23 20:32S 32°03' E 115°45'0 0.0
2015-Jan-23 19:32S 32°03' E 115°45'0 0.0
2015-Jan-23 18:31S 32°03' E 115°45'0 0.0
2015-Jan-23 17:31S 32°03' E 115°45'0 0.0
2015-Jan-23 16:31S 32°03' E 115°45'0 0.0
2015-Jan-23 15:33S 32°03' E 115°45'0 0.0
2015-Jan-23 14:33S 32°03' E 115°45'0 0.0
2015-Jan-23 13:32S 32°03' E 115°45'0 0.0
2015-Jan-23 12:32S 32°03' E 115°45'0 0.0
2015-Jan-23 11:31S 32°03' E 115°45'0 0.0
2015-Jan-23 10:31S 32°03' E 115°45'0 0.0
2015-Jan-23 09:31S 32°03' E 115°45'0 0.0
2015-Jan-23 08:33S 32°03' E 115°45'0 0.0
2015-Jan-23 07:33S 32°03' E 115°45'0 0.0
2015-Jan-23 06:32S 32°03' E 115°45'0 0.0
2015-Jan-23 05:32S 32°03' E 115°45'0 0.0
2015-Jan-23 04:31S 32°03' E 115°45'0 0.0
2015-Jan-23 03:31S 32°03' E 115°45'0 0.0
2015-Jan-23 02:31S 32°03' E 115°45'0 0.0
2015-Jan-23 01:33S 32°03' E 115°45'0 0.0
2015-Jan-23 00:33S 32°03' E 115°45'3 3.4
2015-Jan-22 23:33S 32°01' E 115°42'9 9.5
2015-Jan-22 22:33S 31°56' E 115°32'9 8.6
2015-Jan-22 21:33S 32°01' E 115°24'1110.5
2015-Jan-22 20:33S 32°10' E 115°19'  
2015-Jan-19 11:33S 35°30' E 135°59'4514.9
2015-Jan-19 08:33S 35°30' E 136°54'1615.8
2015-Jan-19 07:33S 35°26' E 137°13'1717.0
2015-Jan-19 06:33S 35°20' E 137°33'2315.9
2015-Jan-19 05:06S 35°08' E 137°57'916.1
2015-Jan-19 04:34S 35°02' E 138°05'1616.4
2015-Jan-19 03:33S 34°50' E 138°18'10 9.3
2015-Jan-19 02:30S 34°46' E 138°30'0 0.0
2015-Jan-18 00:13S 34°46' E 138°29'5 7.9
2015-Jan-17 23:33S 34°47' E 138°23'8 7.9
2015-Jan-17 22:34S 34°54' E 138°18'1313.3
2015-Jan-17 21:33S 35°07' E 138°13'54713.6
2015-Jan-16 05:24S 38°27' E 148°49'1517.2
2015-Jan-16 04:33S 38°19' E 149°05'3517.4
2015-Jan-16 02:33S 38°02' E 149°44'1817.6
2015-Jan-16 01:33S 37°54' E 150°04'1817.8
2015-Jan-16 00:33S 37°37' E 150°11'1324.0
2015-Jan-16 00:00S 37°24' E 150°12'614.8 260 / 171007.510.8 20.012.621.0
2015-Jan-15 23:33S 37°21' E 150°19'  
Track history (hours):
 
Tides and Currents Weather Stations Pressure Air Temp Water Temp Dewpoint Dewpoint Depression Visibility Wind Speed Wind Dir Waves Ship Positions

CMA CGM Verlaine

Last reported at 2015-Jan-25 12:24 UTC. Time now 2015-Jan-30 12:27 UTC.
Position S 21°41' E 110°37'.

Length 300 m; beam 40 m; draft 14.5 m.

Type: Ship. MMSI: 211378820.

Date/timePositionNaut miles runAvg speedWind from/ knotsBaromVisibWave heightAir tempDewpointWater temp
2015-Jan-25 12:24S 21°41' E 110°37'10816.9
2015-Jan-25 06:00S 23°24' E 111°12'35618.2 180 / 241010.0 5.4 1.030.027.425.0
2015-Jan-24 10:22S 28°59' E 113°28'1417.6
2015-Jan-24 09:34S 29°12' E 113°34'6018.0
2015-Jan-24 06:14S 30°08' E 113°60'1318.5
2015-Jan-24 05:33S 30°18' E 114°08'6217.9
2015-Jan-24 02:05S 31°06' E 114°54'917.2
2015-Jan-24 01:33S 31°14' E 114°59'3618.1
2015-Jan-23 23:33S 31°43' E 115°25'1817.9
2015-Jan-23 22:33S 31°57' E 115°38'8 8.2
2015-Jan-23 21:34S 32°03' E 115°45'0 0.1
2015-Jan-23 20:32S 32°03' E 115°45'0 0.0
2015-Jan-23 19:32S 32°03' E 115°45'0 0.0
2015-Jan-23 18:31S 32°03' E 115°45'0 0.0
2015-Jan-23 17:31S 32°03' E 115°45'0 0.0
2015-Jan-23 16:31S 32°03' E 115°45'0 0.0
2015-Jan-23 15:33S 32°03' E 115°45'0 0.0
2015-Jan-23 14:33S 32°03' E 115°45'0 0.0
2015-Jan-23 13:32S 32°03' E 115°45'0 0.0
2015-Jan-23 12:32S 32°03' E 115°45'0 0.0
2015-Jan-23 11:31S 32°03' E 115°45'0 0.0
2015-Jan-23 10:31S 32°03' E 115°45'0 0.0
2015-Jan-23 09:31S 32°03' E 115°45'0 0.0
2015-Jan-23 08:33S 32°03' E 115°45'0 0.0
2015-Jan-23 07:33S 32°03' E 115°45'0 0.0
2015-Jan-23 06:32S 32°03' E 115°45'0 0.0
2015-Jan-23 05:32S 32°03' E 115°45'0 0.0
2015-Jan-23 04:31S 32°03' E 115°45'0 0.0
2015-Jan-23 03:31S 32°03' E 115°45'0 0.0
2015-Jan-23 02:31S 32°03' E 115°45'0 0.0
2015-Jan-23 01:33S 32°03' E 115°45'0 0.0
2015-Jan-23 00:33S 32°03' E 115°45'3 3.4
2015-Jan-22 23:33S 32°01' E 115°42'9 9.5
2015-Jan-22 22:33S 31°56' E 115°32'9 8.6
2015-Jan-22 21:33S 32°01' E 115°24'1110.5
2015-Jan-22 20:33S 32°10' E 115°19'  
2015-Jan-19 11:33S 35°30' E 135°59'4514.9
2015-Jan-19 08:33S 35°30' E 136°54'1615.8
2015-Jan-19 07:33S 35°26' E 137°13'1717.0
2015-Jan-19 06:33S 35°20' E 137°33'2315.9
2015-Jan-19 05:06S 35°08' E 137°57'916.1
2015-Jan-19 04:34S 35°02' E 138°05'1616.4
2015-Jan-19 03:33S 34°50' E 138°18'10 9.3
2015-Jan-19 02:30S 34°46' E 138°30'0 0.0
2015-Jan-18 00:13S 34°46' E 138°29'5 7.9
2015-Jan-17 23:33S 34°47' E 138°23'8 7.9
2015-Jan-17 22:34S 34°54' E 138°18'1313.3
2015-Jan-17 21:33S 35°07' E 138°13'54713.6
2015-Jan-16 05:24S 38°27' E 148°49'1517.2
2015-Jan-16 04:33S 38°19' E 149°05'3517.4
2015-Jan-16 02:33S 38°02' E 149°44'1817.6
2015-Jan-16 01:33S 37°54' E 150°04'1817.8
2015-Jan-16 00:33S 37°37' E 150°11'1324.0
2015-Jan-16 00:00S 37°24' E 150°12'614.8 260 / 171007.510.8 20.012.621.0
2015-Jan-15 23:33S 37°21' E 150°19'  

Dump ship's entire track history